sensor_id;sensor_type;location;lat;lon;timestamp;temperature;humidity
15099;DHT22;33900;53.640;9.942;2023-06-10T00:01:41;19.50;76.90
15099;DHT22;33900;53.640;9.942;2023-06-10T00:04:07;19.40;76.80
15099;DHT22;33900;53.640;9.942;2023-06-10T00:06:32;19.40;76.90
15099;DHT22;33900;53.640;9.942;2023-06-10T00:09:02;19.40;77.00
15099;DHT22;33900;53.640;9.942;2023-06-10T00:11:30;19.40;77.00
15099;DHT22;33900;53.640;9.942;2023-06-10T00:13:55;19.40;77.20
15099;DHT22;33900;53.640;9.942;2023-06-10T00:16:21;19.40;76.90
15099;DHT22;33900;53.640;9.942;2023-06-10T00:18:47;19.40;76.80
15099;DHT22;33900;53.640;9.942;2023-06-10T00:21:14;19.40;76.50
15099;DHT22;33900;53.640;9.942;2023-06-10T00:23:43;19.40;76.40
15099;DHT22;33900;53.640;9.942;2023-06-10T00:26:09;19.40;76.30
15099;DHT22;33900;53.640;9.942;2023-06-10T00:28:35;19.40;76.20
15099;DHT22;33900;53.640;9.942;2023-06-10T00:31:01;19.40;75.90
15099;DHT22;33900;53.640;9.942;2023-06-10T00:33:26;19.40;75.60
15099;DHT22;33900;53.640;9.942;2023-06-10T00:35:56;19.40;75.50
15099;DHT22;33900;53.640;9.942;2023-06-10T00:38:21;19.40;75.40
15099;DHT22;33900;53.640;9.942;2023-06-10T00:40:47;19.40;75.10
15099;DHT22;33900;53.640;9.942;2023-06-10T00:43:13;19.40;75.00
15099;DHT22;33900;53.640;9.942;2023-06-10T00:45:39;19.40;74.70
15099;DHT22;33900;53.640;9.942;2023-06-10T00:48:05;19.40;74.50
15099;DHT22;33900;53.640;9.942;2023-06-10T00:50:31;19.40;74.40
15099;DHT22;33900;53.640;9.942;2023-06-10T00:52:56;19.40;74.20
15099;DHT22;33900;53.640;9.942;2023-06-10T00:55:23;19.40;74.00
15099;DHT22;33900;53.640;9.942;2023-06-10T00:57:49;19.40;73.80
15099;DHT22;33900;53.640;9.942;2023-06-10T01:00:15;19.30;73.40
15099;DHT22;33900;53.640;9.942;2023-06-10T01:02:41;19.40;73.60
15099;DHT22;33900;53.640;9.942;2023-06-10T01:05:07;19.40;73.40
15099;DHT22;33900;53.640;9.942;2023-06-10T01:07:47;19.40;73.30
15099;DHT22;33900;53.640;9.942;2023-06-10T01:10:17;19.30;73.20
15099;DHT22;33900;53.640;9.942;2023-06-10T01:13:01;19.20;73.00
15099;DHT22;33900;53.640;9.942;2023-06-10T01:15:32;19.30;73.10
15099;DHT22;33900;53.640;9.942;2023-06-10T01:18:03;19.30;73.10
15099;DHT22;33900;53.640;9.942;2023-06-10T01:20:32;19.20;73.00
15099;DHT22;33900;53.640;9.942;2023-06-10T01:22:58;19.20;72.90
15099;DHT22;33900;53.640;9.942;2023-06-10T01:25:24;19.10;72.90
15099;DHT22;33900;53.640;9.942;2023-06-10T01:28:17;19.10;73.70
15099;DHT22;33900;53.640;9.942;2023-06-10T01:30:46;19.00;72.80
15099;DHT22;33900;53.640;9.942;2023-06-10T01:33:14;19.00;72.90
15099;DHT22;33900;53.640;9.942;2023-06-10T01:35:42;19.00;73.10
15099;DHT22;33900;53.640;9.942;2023-06-10T01:38:09;18.90;73.00
15099;DHT22;33900;53.640;9.942;2023-06-10T01:40:35;18.90;73.00
15099;DHT22;33900;53.640;9.942;2023-06-10T01:43:01;18.80;73.00
15099;DHT22;33900;53.640;9.942;2023-06-10T01:45:27;18.80;73.10
15099;DHT22;33900;53.640;9.942;2023-06-10T01:47:53;18.70;73.20
15099;DHT22;33900;53.640;9.942;2023-06-10T01:50:18;18.70;73.30
15099;DHT22;33900;53.640;9.942;2023-06-10T01:52:45;18.70;73.30
15099;DHT22;33900;53.640;9.942;2023-06-10T01:55:10;18.70;73.20
15099;DHT22;33900;53.640;9.942;2023-06-10T01:57:36;18.60;73.20
15099;DHT22;33900;53.640;9.942;2023-06-10T02:00:02;18.60;73.20
15099;DHT22;33900;53.640;9.942;2023-06-10T02:02:29;18.50;73.20
15099;DHT22;33900;53.640;9.942;2023-06-10T02:04:54;18.50;73.30
15099;DHT22;33900;53.640;9.942;2023-06-10T02:07:20;18.50;73.40
15099;DHT22;33900;53.640;9.942;2023-06-10T02:09:46;18.40;73.40
15099;DHT22;33900;53.640;9.942;2023-06-10T02:12:11;18.40;73.50
15099;DHT22;33900;53.640;9.942;2023-06-10T02:14:37;18.40;73.50
15099;DHT22;33900;53.640;9.942;2023-06-10T02:17:03;18.40;73.60
15099;DHT22;33900;53.640;9.942;2023-06-10T02:19:29;18.30;73.60
15099;DHT22;33900;53.640;9.942;2023-06-10T02:21:56;18.30;73.70
15099;DHT22;33900;53.640;9.942;2023-06-10T02:24:21;18.30;73.80
15099;DHT22;33900;53.640;9.942;2023-06-10T02:26:47;18.30;73.90
15099;DHT22;33900;53.640;9.942;2023-06-10T02:29:13;18.20;73.90
15099;DHT22;33900;53.640;9.942;2023-06-10T02:31:39;18.20;73.90
15099;DHT22;33900;53.640;9.942;2023-06-10T02:34:05;18.20;74.00
15099;DHT22;33900;53.640;9.942;2023-06-10T02:36:31;18.20;74.20
15099;DHT22;33900;53.640;9.942;2023-06-10T02:38:56;18.10;74.10
15099;DHT22;33900;53.640;9.942;2023-06-10T02:41:25;18.10;74.20
15099;DHT22;33900;53.640;9.942;2023-06-10T02:43:53;18.10;74.30
15099;DHT22;33900;53.640;9.942;2023-06-10T02:46:20;18.00;74.40
15099;DHT22;33900;53.640;9.942;2023-06-10T02:48:45;18.00;74.30
15099;DHT22;33900;53.640;9.942;2023-06-10T02:51:14;18.00;74.40
15099;DHT22;33900;53.640;9.942;2023-06-10T02:53:44;18.00;74.50
15099;DHT22;33900;53.640;9.942;2023-06-10T02:56:12;17.90;74.50
15099;DHT22;33900;53.640;9.942;2023-06-10T02:58:38;17.90;74.70
15099;DHT22;33900;53.640;9.942;2023-06-10T03:01:05;17.90;74.80
15099;DHT22;33900;53.640;9.942;2023-06-10T03:03:40;17.80;75.50
15099;DHT22;33900;53.640;9.942;2023-06-10T03:06:11;17.80;74.90
15099;DHT22;33900;53.640;9.942;2023-06-10T03:08:38;17.80;75.00
15099;DHT22;33900;53.640;9.942;2023-06-10T03:11:08;17.70;75.00
15099;DHT22;33900;53.640;9.942;2023-06-10T03:13:35;17.70;75.20
15099;DHT22;33900;53.640;9.942;2023-06-10T03:16:02;17.70;75.30
15099;DHT22;33900;53.640;9.942;2023-06-10T03:18:29;17.70;75.40
15099;DHT22;33900;53.640;9.942;2023-06-10T03:20:55;17.70;75.50
15099;DHT22;33900;53.640;9.942;2023-06-10T03:23:25;17.60;75.60
15099;DHT22;33900;53.640;9.942;2023-06-10T03:25:50;17.60;75.60
15099;DHT22;33900;53.640;9.942;2023-06-10T03:28:20;17.60;75.70
15099;DHT22;33900;53.640;9.942;2023-06-10T03:30:47;17.60;75.90
15099;DHT22;33900;53.640;9.942;2023-06-10T03:33:13;17.60;76.00
15099;DHT22;33900;53.640;9.942;2023-06-10T03:35:40;17.60;76.00
15099;DHT22;33900;53.640;9.942;2023-06-10T03:38:06;17.60;76.00
15099;DHT22;33900;53.640;9.942;2023-06-10T03:40:32;17.60;76.10
15099;DHT22;33900;53.640;9.942;2023-06-10T03:42:58;17.50;76.20
15099;DHT22;33900;53.640;9.942;2023-06-10T03:45:26;17.50;76.30
15099;DHT22;33900;53.640;9.942;2023-06-10T03:47:55;17.50;76.30
15099;DHT22;33900;53.640;9.942;2023-06-10T03:50:26;17.50;76.50
15099;DHT22;33900;53.640;9.942;2023-06-10T03:52:52;17.50;76.50
15099;DHT22;33900;53.640;9.942;2023-06-10T03:55:21;17.50;76.50
15099;DHT22;33900;53.640;9.942;2023-06-10T03:57:51;17.50;76.60
15099;DHT22;33900;53.640;9.942;2023-06-10T04:00:17;17.60;76.70
15099;DHT22;33900;53.640;9.942;2023-06-10T04:02:43;17.50;76.60
15099;DHT22;33900;53.640;9.942;2023-06-10T04:05:22;17.60;76.70
15099;DHT22;33900;53.640;9.942;2023-06-10T04:07:47;17.60;77.60
15099;DHT22;33900;53.640;9.942;2023-06-10T04:10:14;17.50;76.70
15099;DHT22;33900;53.640;9.942;2023-06-10T04:12:39;17.60;76.80
15099;DHT22;33900;53.640;9.942;2023-06-10T04:15:08;17.60;76.90
15099;DHT22;33900;53.640;9.942;2023-06-10T04:17:34;17.60;76.90
15099;DHT22;33900;53.640;9.942;2023-06-10T04:20:00;17.70;77.00
15099;DHT22;33900;53.640;9.942;2023-06-10T04:22:27;17.70;76.90
15099;DHT22;33900;53.640;9.942;2023-06-10T04:24:53;17.70;77.00
15099;DHT22;33900;53.640;9.942;2023-06-10T04:27:19;17.70;77.70
15099;DHT22;33900;53.640;9.942;2023-06-10T04:29:45;17.60;76.90
15099;DHT22;33900;53.640;9.942;2023-06-10T04:32:11;17.70;77.00
15099;DHT22;33900;53.640;9.942;2023-06-10T04:34:37;17.70;77.20
15099;DHT22;33900;53.640;9.942;2023-06-10T04:37:07;17.70;77.10
15099;DHT22;33900;53.640;9.942;2023-06-10T04:39:33;17.70;77.40
15099;DHT22;33900;53.640;9.942;2023-06-10T04:42:00;17.80;77.40
15099;DHT22;33900;53.640;9.942;2023-06-10T04:44:29;17.80;77.50
15099;DHT22;33900;53.640;9.942;2023-06-10T04:46:56;17.80;77.50
15099;DHT22;33900;53.640;9.942;2023-06-10T04:49:23;17.80;77.70
15099;DHT22;33900;53.640;9.942;2023-06-10T04:51:49;17.80;77.70
15099;DHT22;33900;53.640;9.942;2023-06-10T04:54:15;17.90;77.70
15099;DHT22;33900;53.640;9.942;2023-06-10T04:56:41;17.90;77.80
15099;DHT22;33900;53.640;9.942;2023-06-10T04:59:07;17.90;77.90
15099;DHT22;33900;53.640;9.942;2023-06-10T05:01:32;18.00;78.00
15099;DHT22;33900;53.640;9.942;2023-06-10T05:03:58;18.00;78.10
15099;DHT22;33900;53.640;9.942;2023-06-10T05:06:23;18.00;78.30
15099;DHT22;33900;53.640;9.942;2023-06-10T05:08:49;18.10;78.30
15099;DHT22;33900;53.640;9.942;2023-06-10T05:11:14;18.10;78.30
15099;DHT22;33900;53.640;9.942;2023-06-10T05:13:41;18.20;78.70
15099;DHT22;33900;53.640;9.942;2023-06-10T05:16:07;18.20;78.50
15099;DHT22;33900;53.640;9.942;2023-06-10T05:18:33;18.20;78.50
15099;DHT22;33900;53.640;9.942;2023-06-10T05:20:59;18.30;78.50
15099;DHT22;33900;53.640;9.942;2023-06-10T05:23:24;18.30;78.50
15099;DHT22;33900;53.640;9.942;2023-06-10T05:25:50;18.40;78.90
15099;DHT22;33900;53.640;9.942;2023-06-10T05:28:19;18.40;79.10
15099;DHT22;33900;53.640;9.942;2023-06-10T05:30:45;18.40;78.90
15099;DHT22;33900;53.640;9.942;2023-06-10T05:33:10;18.40;79.00
15099;DHT22;33900;53.640;9.942;2023-06-10T05:35:36;18.40;79.10
15099;DHT22;33900;53.640;9.942;2023-06-10T05:38:02;18.40;78.90
15099;DHT22;33900;53.640;9.942;2023-06-10T05:40:27;18.40;79.00
15099;DHT22;33900;53.640;9.942;2023-06-10T05:42:53;18.40;78.90
15099;DHT22;33900;53.640;9.942;2023-06-10T05:45:19;18.50;79.00
15099;DHT22;33900;53.640;9.942;2023-06-10T05:47:44;18.50;78.70
15099;DHT22;33900;53.640;9.942;2023-06-10T05:50:10;18.50;78.60
15099;DHT22;33900;53.640;9.942;2023-06-10T05:52:36;18.60;78.60
15099;DHT22;33900;53.640;9.942;2023-06-10T05:55:02;18.60;78.60
15099;DHT22;33900;53.640;9.942;2023-06-10T05:57:30;18.60;78.50
15099;DHT22;33900;53.640;9.942;2023-06-10T05:59:56;18.70;78.50
15099;DHT22;33900;53.640;9.942;2023-06-10T06:02:21;18.70;78.30
15099;DHT22;33900;53.640;9.942;2023-06-10T06:04:47;18.70;78.30
15099;DHT22;33900;53.640;9.942;2023-06-10T06:07:13;18.70;78.10
15099;DHT22;33900;53.640;9.942;2023-06-10T06:09:38;18.80;78.30
15099;DHT22;33900;53.640;9.942;2023-06-10T06:12:04;18.80;78.10
15099;DHT22;33900;53.640;9.942;2023-06-10T06:14:32;18.80;77.80
15099;DHT22;33900;53.640;9.942;2023-06-10T06:16:59;18.90;77.70
15099;DHT22;33900;53.640;9.942;2023-06-10T06:19:25;18.90;77.80
15099;DHT22;33900;53.640;9.942;2023-06-10T06:21:50;18.90;77.70
15099;DHT22;33900;53.640;9.942;2023-06-10T06:24:16;19.00;77.60
15099;DHT22;33900;53.640;9.942;2023-06-10T06:26:42;19.00;77.50
15099;DHT22;33900;53.640;9.942;2023-06-10T06:29:07;19.00;77.20
15099;DHT22;33900;53.640;9.942;2023-06-10T06:31:33;19.10;77.40
15099;DHT22;33900;53.640;9.942;2023-06-10T06:33:59;19.10;77.10
15099;DHT22;33900;53.640;9.942;2023-06-10T06:36:24;19.20;77.10
15099;DHT22;33900;53.640;9.942;2023-06-10T06:38:50;19.30;77.00
15099;DHT22;33900;53.640;9.942;2023-06-10T06:41:18;19.30;76.80
15099;DHT22;33900;53.640;9.942;2023-06-10T06:43:43;19.30;76.80
15099;DHT22;33900;53.640;9.942;2023-06-10T06:46:25;19.40;76.70
15099;DHT22;33900;53.640;9.942;2023-06-10T06:48:51;19.50;76.40
15099;DHT22;33900;53.640;9.942;2023-06-10T06:51:16;19.60;76.40
15099;DHT22;33900;53.640;9.942;2023-06-10T06:53:42;19.70;76.10
15099;DHT22;33900;53.640;9.942;2023-06-10T06:56:10;19.70;76.00
15099;DHT22;33900;53.640;9.942;2023-06-10T06:58:37;19.80;75.60
15099;DHT22;33900;53.640;9.942;2023-06-10T07:01:02;19.80;75.50
15099;DHT22;33900;53.640;9.942;2023-06-10T07:03:28;19.90;75.50
15099;DHT22;33900;53.640;9.942;2023-06-10T07:05:55;19.90;75.10
15099;DHT22;33900;53.640;9.942;2023-06-10T07:08:20;20.00;75.00
15099;DHT22;33900;53.640;9.942;2023-06-10T07:10:46;20.10;74.90
15099;DHT22;33900;53.640;9.942;2023-06-10T07:13:11;20.10;74.80
15099;DHT22;33900;53.640;9.942;2023-06-10T07:15:40;20.20;74.60
15099;DHT22;33900;53.640;9.942;2023-06-10T07:18:06;20.30;74.50
15099;DHT22;33900;53.640;9.942;2023-06-10T07:20:35;20.40;74.40
15099;DHT22;33900;53.640;9.942;2023-06-10T07:23:01;20.50;74.20
15099;DHT22;33900;53.640;9.942;2023-06-10T07:25:27;20.50;73.90
15099;DHT22;33900;53.640;9.942;2023-06-10T07:27:55;20.60;73.80
15099;DHT22;33900;53.640;9.942;2023-06-10T07:30:21;20.70;73.70
15099;DHT22;33900;53.640;9.942;2023-06-10T07:32:46;20.70;73.60
15099;DHT22;33900;53.640;9.942;2023-06-10T07:35:12;20.80;73.50
15099;DHT22;33900;53.640;9.942;2023-06-10T07:37:37;20.90;73.10
15099;DHT22;33900;53.640;9.942;2023-06-10T07:40:05;20.90;72.90
15099;DHT22;33900;53.640;9.942;2023-06-10T07:42:31;20.80;73.40
15099;DHT22;33900;53.640;9.942;2023-06-10T07:44:57;20.50;74.10
15099;DHT22;33900;53.640;9.942;2023-06-10T07:47:23;20.30;75.10
15099;DHT22;33900;53.640;9.942;2023-06-10T07:49:49;20.20;77.80
15099;DHT22;33900;53.640;9.942;2023-06-10T07:52:14;20.20;77.60
15099;DHT22;33900;53.640;9.942;2023-06-10T07:54:40;20.20;77.50
15099;DHT22;33900;53.640;9.942;2023-06-10T07:57:06;20.20;78.30
15099;DHT22;33900;53.640;9.942;2023-06-10T07:59:32;20.30;78.30
15099;DHT22;33900;53.640;9.942;2023-06-10T08:01:58;20.40;78.90
15099;DHT22;33900;53.640;9.942;2023-06-10T08:04:25;20.50;79.60
15099;DHT22;33900;53.640;9.942;2023-06-10T08:06:51;20.50;79.50
15099;DHT22;33900;53.640;9.942;2023-06-10T08:09:17;20.60;79.80
15099;DHT22;33900;53.640;9.942;2023-06-10T08:11:44;20.80;79.60
15099;DHT22;33900;53.640;9.942;2023-06-10T08:14:09;20.90;79.10
15099;DHT22;33900;53.640;9.942;2023-06-10T08:16:35;21.00;78.80
15099;DHT22;33900;53.640;9.942;2023-06-10T08:19:03;21.20;78.70
15099;DHT22;33900;53.640;9.942;2023-06-10T08:21:30;21.30;78.80
15099;DHT22;33900;53.640;9.942;2023-06-10T08:23:56;21.50;78.40
15099;DHT22;33900;53.640;9.942;2023-06-10T08:26:23;21.70;78.10
15099;DHT22;33900;53.640;9.942;2023-06-10T08:28:48;21.90;77.70
15099;DHT22;33900;53.640;9.942;2023-06-10T08:31:15;22.10;77.40
15099;DHT22;33900;53.640;9.942;2023-06-10T08:33:42;22.20;76.80
15099;DHT22;33900;53.640;9.942;2023-06-10T08:36:09;22.40;76.10
15099;DHT22;33900;53.640;9.942;2023-06-10T08:38:35;22.50;75.10
15099;DHT22;33900;53.640;9.942;2023-06-10T08:41:00;22.70;74.60
15099;DHT22;33900;53.640;9.942;2023-06-10T08:43:31;22.80;74.10
15099;DHT22;33900;53.640;9.942;2023-06-10T08:45:58;23.10;73.80
15099;DHT22;33900;53.640;9.942;2023-06-10T08:48:25;23.20;73.20
15099;DHT22;33900;53.640;9.942;2023-06-10T08:50:52;23.40;72.40
15099;DHT22;33900;53.640;9.942;2023-06-10T08:53:19;23.60;72.20
15099;DHT22;33900;53.640;9.942;2023-06-10T08:55:46;23.70;72.00
15099;DHT22;33900;53.640;9.942;2023-06-10T08:58:16;23.90;71.60
15099;DHT22;33900;53.640;9.942;2023-06-10T09:00:42;24.10;71.40
15099;DHT22;33900;53.640;9.942;2023-06-10T09:03:08;24.30;71.20
15099;DHT22;33900;53.640;9.942;2023-06-10T09:05:36;24.60;70.40
15099;DHT22;33900;53.640;9.942;2023-06-10T09:08:02;24.70;69.20
15099;DHT22;33900;53.640;9.942;2023-06-10T09:10:28;24.80;69.30
15099;DHT22;33900;53.640;9.942;2023-06-10T09:12:54;25.10;69.00
15099;DHT22;33900;53.640;9.942;2023-06-10T09:15:20;25.20;68.00
15099;DHT22;33900;53.640;9.942;2023-06-10T09:17:46;25.40;67.60
15099;DHT22;33900;53.640;9.942;2023-06-10T09:20:15;25.40;67.10
15099;DHT22;33900;53.640;9.942;2023-06-10T09:22:42;25.50;66.20
15099;DHT22;33900;53.640;9.942;2023-06-10T09:25:09;25.50;65.80
15099;DHT22;33900;53.640;9.942;2023-06-10T09:30:26;25.40;64.70
15099;DHT22;33900;53.640;9.942;2023-06-10T09:32:53;25.40;64.80
15099;DHT22;33900;53.640;9.942;2023-06-10T09:35:25;25.30;64.80
15099;DHT22;33900;53.640;9.942;2023-06-10T09:37:52;25.30;64.80
15099;DHT22;33900;53.640;9.942;2023-06-10T09:40:21;25.30;64.80
15099;DHT22;33900;53.640;9.942;2023-06-10T09:42:52;25.20;64.40
15099;DHT22;33900;53.640;9.942;2023-06-10T09:45:20;25.20;64.60
15099;DHT22;33900;53.640;9.942;2023-06-10T09:47:46;25.20;64.60
15099;DHT22;33900;53.640;9.942;2023-06-10T09:50:12;25.20;64.30
15099;DHT22;33900;53.640;9.942;2023-06-10T09:52:39;25.10;64.30
15099;DHT22;33900;53.640;9.942;2023-06-10T09:55:07;25.10;64.30
15099;DHT22;33900;53.640;9.942;2023-06-10T09:57:33;25.00;64.20
15099;DHT22;33900;53.640;9.942;2023-06-10T09:59:59;24.90;64.10
15099;DHT22;33900;53.640;9.942;2023-06-10T10:02:24;24.90;64.30
15099;DHT22;33900;53.640;9.942;2023-06-10T10:04:50;24.80;64.40
15099;DHT22;33900;53.640;9.942;2023-06-10T10:07:16;24.80;64.40
15099;DHT22;33900;53.640;9.942;2023-06-10T10:09:42;24.70;64.30
15099;DHT22;33900;53.640;9.942;2023-06-10T10:14:33;24.70;64.80
15099;DHT22;33900;53.640;9.942;2023-06-10T10:17:00;24.60;64.60
15099;DHT22;33900;53.640;9.942;2023-06-10T10:19:30;24.50;64.60
15099;DHT22;33900;53.640;9.942;2023-06-10T10:22:00;24.50;64.70
15099;DHT22;33900;53.640;9.942;2023-06-10T10:24:31;24.50;64.80
15099;DHT22;33900;53.640;9.942;2023-06-10T10:26:59;24.40;64.90
15099;DHT22;33900;53.640;9.942;2023-06-10T10:29:38;24.40;65.10
15099;DHT22;33900;53.640;9.942;2023-06-10T10:32:06;24.40;65.10
15099;DHT22;33900;53.640;9.942;2023-06-10T10:34:39;24.40;65.20
15099;DHT22;33900;53.640;9.942;2023-06-10T10:37:10;24.40;65.30
15099;DHT22;33900;53.640;9.942;2023-06-10T10:39:36;24.30;65.30
15099;DHT22;33900;53.640;9.942;2023-06-10T10:42:02;24.30;65.30
15099;DHT22;33900;53.640;9.942;2023-06-10T10:44:29;24.30;65.50
15099;DHT22;33900;53.640;9.942;2023-06-10T10:46:56;24.30;65.50
15099;DHT22;33900;53.640;9.942;2023-06-10T10:49:22;24.30;65.50
15099;DHT22;33900;53.640;9.942;2023-06-10T10:51:59;24.30;65.60
15099;DHT22;33900;53.640;9.942;2023-06-10T10:54:29;24.30;65.60
15099;DHT22;33900;53.640;9.942;2023-06-10T10:57:12;24.30;65.70
15099;DHT22;33900;53.640;9.942;2023-06-10T11:02:10;24.20;65.60
15099;DHT22;33900;53.640;9.942;2023-06-10T11:04:44;24.20;66.50
15099;DHT22;33900;53.640;9.942;2023-06-10T11:07:10;24.30;65.90
15099;DHT22;33900;53.640;9.942;2023-06-10T11:09:35;24.20;65.80
15099;DHT22;33900;53.640;9.942;2023-06-10T11:12:01;24.20;65.80
15099;DHT22;33900;53.640;9.942;2023-06-10T11:14:27;24.20;65.80
15099;DHT22;33900;53.640;9.942;2023-06-10T11:16:57;24.20;65.90
15099;DHT22;33900;53.640;9.942;2023-06-10T11:19:33;24.30;66.00
15099;DHT22;33900;53.640;9.942;2023-06-10T11:22:00;24.30;66.00
15099;DHT22;33900;53.640;9.942;2023-06-10T11:24:28;24.40;66.10
15099;DHT22;33900;53.640;9.942;2023-06-10T11:26:55;24.60;66.10
15099;DHT22;33900;53.640;9.942;2023-06-10T11:30:42;24.70;65.50
15099;DHT22;33900;53.640;9.942;2023-06-10T11:32:36;24.70;65.10
15099;DHT22;33900;53.640;9.942;2023-06-10T11:35:02;24.70;65.00
15099;DHT22;33900;53.640;9.942;2023-06-10T11:37:29;24.70;65.20
15099;DHT22;33900;53.640;9.942;2023-06-10T11:39:55;24.70;65.40
15099;DHT22;33900;53.640;9.942;2023-06-10T11:42:23;24.70;65.40
15099;DHT22;33900;53.640;9.942;2023-06-10T11:44:51;24.70;65.40
15099;DHT22;33900;53.640;9.942;2023-06-10T11:47:18;24.80;65.80
15099;DHT22;33900;53.640;9.942;2023-06-10T11:49:44;24.90;65.80
15099;DHT22;33900;53.640;9.942;2023-06-10T11:52:11;24.90;65.70
15099;DHT22;33900;53.640;9.942;2023-06-10T11:54:37;24.90;65.80
15099;DHT22;33900;53.640;9.942;2023-06-10T11:57:04;25.10;66.00
15099;DHT22;33900;53.640;9.942;2023-06-10T11:59:30;25.20;66.10
15099;DHT22;33900;53.640;9.942;2023-06-10T12:01:56;25.20;65.70
15099;DHT22;33900;53.640;9.942;2023-06-10T12:04:22;25.30;65.80
15099;DHT22;33900;53.640;9.942;2023-06-10T12:06:51;25.40;66.10
15099;DHT22;33900;53.640;9.942;2023-06-10T12:09:25;25.50;65.80
15099;DHT22;33900;53.640;9.942;2023-06-10T12:11:55;25.60;65.60
15099;DHT22;33900;53.640;9.942;2023-06-10T12:17:08;25.80;65.00
15099;DHT22;33900;53.640;9.942;2023-06-10T12:19:38;25.80;64.60
15099;DHT22;33900;53.640;9.942;2023-06-10T12:22:04;25.90;64.70
15099;DHT22;33900;53.640;9.942;2023-06-10T12:24:29;26.00;65.60
15099;DHT22;33900;53.640;9.942;2023-06-10T12:26:55;26.10;64.50
15099;DHT22;33900;53.640;9.942;2023-06-10T12:29:22;26.20;63.90
15099;DHT22;33900;53.640;9.942;2023-06-10T12:32:00;26.40;63.60
15099;DHT22;33900;53.640;9.942;2023-06-10T12:34:37;26.40;63.10
15099;DHT22;33900;53.640;9.942;2023-06-10T12:37:10;26.50;62.80
15099;DHT22;33900;53.640;9.942;2023-06-10T12:39:39;26.60;62.80
15099;DHT22;33900;53.640;9.942;2023-06-10T12:42:05;26.70;62.20
15099;DHT22;33900;53.640;9.942;2023-06-10T12:44:34;26.80;62.10
15099;DHT22;33900;53.640;9.942;2023-06-10T12:47:10;26.90;62.20
15099;DHT22;33900;53.640;9.942;2023-06-10T12:49:38;27.00;61.40
15099;DHT22;33900;53.640;9.942;2023-06-10T12:52:04;27.10;61.50
15099;DHT22;33900;53.640;9.942;2023-06-10T12:54:30;27.10;61.20
15099;DHT22;33900;53.640;9.942;2023-06-10T12:56:56;27.20;61.20
15099;DHT22;33900;53.640;9.942;2023-06-10T12:59:21;27.30;61.30
15099;DHT22;33900;53.640;9.942;2023-06-10T13:01:51;27.30;60.40
15099;DHT22;33900;53.640;9.942;2023-06-10T13:04:17;27.30;60.10
15099;DHT22;33900;53.640;9.942;2023-06-10T13:06:44;27.40;59.80
15099;DHT22;33900;53.640;9.942;2023-06-10T13:09:09;27.50;59.70
15099;DHT22;33900;53.640;9.942;2023-06-10T13:11:35;27.50;59.90
15099;DHT22;33900;53.640;9.942;2023-06-10T13:14:02;27.60;59.90
15099;DHT22;33900;53.640;9.942;2023-06-10T13:16:29;27.70;60.00
15099;DHT22;33900;53.640;9.942;2023-06-10T13:18:55;27.70;59.90
15099;DHT22;33900;53.640;9.942;2023-06-10T13:21:20;27.80;59.90
15099;DHT22;33900;53.640;9.942;2023-06-10T13:23:46;27.80;59.30
15099;DHT22;33900;53.640;9.942;2023-06-10T13:26:17;27.90;59.10
15099;DHT22;33900;53.640;9.942;2023-06-10T13:28:43;27.90;58.90
15099;DHT22;33900;53.640;9.942;2023-06-10T13:31:09;27.90;59.10
15099;DHT22;33900;53.640;9.942;2023-06-10T13:33:34;27.90;58.90
15099;DHT22;33900;53.640;9.942;2023-06-10T13:36:00;27.90;58.60
15099;DHT22;33900;53.640;9.942;2023-06-10T13:38:26;27.90;58.50
15099;DHT22;33900;53.640;9.942;2023-06-10T13:40:52;27.90;58.50
15099;DHT22;33900;53.640;9.942;2023-06-10T13:43:17;28.00;58.10
15099;DHT22;33900;53.640;9.942;2023-06-10T13:45:46;28.00;58.20
15099;DHT22;33900;53.640;9.942;2023-06-10T13:48:11;28.00;58.20
15099;DHT22;33900;53.640;9.942;2023-06-10T13:50:37;28.00;58.00
15099;DHT22;33900;53.640;9.942;2023-06-10T13:53:03;27.90;58.00
15099;DHT22;33900;53.640;9.942;2023-06-10T13:55:29;27.90;58.40
15099;DHT22;33900;53.640;9.942;2023-06-10T13:57:54;27.90;58.20
15099;DHT22;33900;53.640;9.942;2023-06-10T14:00:20;27.90;58.20
15099;DHT22;33900;53.640;9.942;2023-06-10T14:02:46;27.90;58.30
15099;DHT22;33900;53.640;9.942;2023-06-10T14:05:15;27.90;58.20
15099;DHT22;33900;53.640;9.942;2023-06-10T14:07:40;27.90;58.20
15099;DHT22;33900;53.640;9.942;2023-06-10T14:10:06;27.90;58.20
15099;DHT22;33900;53.640;9.942;2023-06-10T14:12:34;27.90;58.40
15099;DHT22;33900;53.640;9.942;2023-06-10T14:15:03;27.90;58.40
15099;DHT22;33900;53.640;9.942;2023-06-10T14:17:29;27.90;58.40
15099;DHT22;33900;53.640;9.942;2023-06-10T14:19:57;27.90;58.20
15099;DHT22;33900;53.640;9.942;2023-06-10T14:22:25;27.90;58.10
15099;DHT22;33900;53.640;9.942;2023-06-10T14:24:51;27.80;58.10
15099;DHT22;33900;53.640;9.942;2023-06-10T14:27:17;27.80;58.10
15099;DHT22;33900;53.640;9.942;2023-06-10T14:29:44;27.80;58.10
15099;DHT22;33900;53.640;9.942;2023-06-10T14:32:09;27.80;58.20
15099;DHT22;33900;53.640;9.942;2023-06-10T14:34:35;27.80;57.80
15099;DHT22;33900;53.640;9.942;2023-06-10T14:37:00;27.80;58.10
15099;DHT22;33900;53.640;9.942;2023-06-10T14:39:28;27.80;57.80
15099;DHT22;33900;53.640;9.942;2023-06-10T14:41:54;27.70;57.90
15099;DHT22;33900;53.640;9.942;2023-06-10T14:44:19;27.70;57.70
15099;DHT22;33900;53.640;9.942;2023-06-10T14:46:45;27.70;57.80
15099;DHT22;33900;53.640;9.942;2023-06-10T14:49:11;27.60;57.80
15099;DHT22;33900;53.640;9.942;2023-06-10T14:51:36;27.60;57.80
15099;DHT22;33900;53.640;9.942;2023-06-10T14:54:02;27.60;58.10
15099;DHT22;33900;53.640;9.942;2023-06-10T14:56:28;27.60;57.70
15099;DHT22;33900;53.640;9.942;2023-06-10T14:58:54;27.60;57.60
15099;DHT22;33900;53.640;9.942;2023-06-10T15:01:20;27.60;57.80
15099;DHT22;33900;53.640;9.942;2023-06-10T15:03:46;27.70;58.00
15099;DHT22;33900;53.640;9.942;2023-06-10T15:06:11;27.70;58.00
15099;DHT22;33900;53.640;9.942;2023-06-10T15:08:37;27.70;58.10
15099;DHT22;33900;53.640;9.942;2023-06-10T15:11:02;27.70;58.00
15099;DHT22;33900;53.640;9.942;2023-06-10T15:13:28;27.70;57.80
15099;DHT22;33900;53.640;9.942;2023-06-10T15:15:55;27.60;57.60
15099;DHT22;33900;53.640;9.942;2023-06-10T15:18:21;27.60;57.80
15099;DHT22;33900;53.640;9.942;2023-06-10T15:20:47;27.60;58.20
15099;DHT22;33900;53.640;9.942;2023-06-10T15:23:12;27.60;57.40
15099;DHT22;33900;53.640;9.942;2023-06-10T15:25:38;27.60;57.50
15099;DHT22;33900;53.640;9.942;2023-06-10T15:28:06;27.60;57.50
15099;DHT22;33900;53.640;9.942;2023-06-10T15:30:31;27.50;57.40
15099;DHT22;33900;53.640;9.942;2023-06-10T15:32:57;27.50;57.20
15099;DHT22;33900;53.640;9.942;2023-06-10T15:35:23;27.40;57.20
15099;DHT22;33900;53.640;9.942;2023-06-10T15:37:48;27.40;57.30
15099;DHT22;33900;53.640;9.942;2023-06-10T15:40:15;27.40;57.10